Time;durP1;ratioP1;P1;durP2;ratioP2;P2;SDS_P1;SDS_P2;PMS_P1;PMS_P2;Temp;Humidity;BMP_temperature;BMP_pressure;BME280_temperature;BME280_humidity;BME280_pressure;Samples;Min_cycle;Max_cycle;Signal;HPM_P1;HPM_P2
2021/12/14 00:00:29;;;;;;;2.90;2.30;;;;;;;10.73;46.41;100862.59;5051485;28;20080;-83
2021/12/14 00:02:56;;;;;;;5.72;3.67;;;;;;;10.65;47.15;100869.06;5053509;28;20032;-82
2021/12/14 00:05:25;;;;;;;3.42;2.67;;;;;;;10.65;47.33;100863.50;5039055;28;20017;-82
2021/12/14 00:07:51;;;;;;;4.10;3.33;;;;;;;10.54;47.86;100854.00;5011366;28;20041;-80
2021/12/14 00:13:03;;;;;;;4.82;3.97;;;;;;;10.48;48.11;100854.22;5043091;28;20132;-83
2021/12/14 00:15:29;;;;;;;3.45;2.35;;;;;;;10.27;49.25;100858.25;5041603;28;20033;-81
2021/12/14 00:17:59;;;;;;;3.42;2.13;;;;;;;10.21;49.61;100874.31;5024376;28;20464;-82
2021/12/14 00:20:30;;;;;;;1.50;1.40;;;;;;;10.15;50.22;100859.00;5042426;28;20085;-82
2021/12/14 00:25:39;;;;;;;3.25;2.00;;;;;;;9.95;50.91;100844.78;5041079;28;20033;-82
2021/12/14 00:28:13;;;;;;;1.52;1.40;;;;;;;10.00;51.66;100867.97;5041016;28;20037;-82
2021/12/14 00:30:39;;;;;;;;;;;;;;;9.83;52.19;100861.44;5023664;28;20060;-82
2021/12/14 00:33:13;;;;;;;4.85;1.30;;;;;;;9.74;52.40;100860.69;5040862;28;20422;-82
2021/12/14 00:35:39;;;;;;;2.22;1.60;;;;;;;9.84;52.66;100865.84;5022769;28;20086;-82
2021/12/14 00:38:06;;;;;;;1.60;1.40;;;;;;;10.01;52.41;100869.59;5022456;28;20036;-81
2021/12/14 00:40:44;;;;;;;2.00;1.80;;;;;;;10.12;52.19;100865.22;5041468;28;20065;-82
2021/12/14 00:43:13;;;;;;;1.10;1.00;;;;;;;10.03;53.32;100870.09;5022943;28;20146;-81
2021/12/14 00:45:41;;;;;;;1.52;1.42;;;;;;;10.18;52.50;100864.69;5022582;28;20386;-82
2021/12/14 00:48:09;;;;;;;2.08;1.88;;;;;;;10.04;53.24;100866.16;5023137;28;20468;-82
2021/12/14 00:50:40;;;;;;;2.20;1.70;;;;;;;9.86;53.82;100863.53;5023381;28;20032;-82
2021/12/14 00:53:06;;;;;;;1.42;1.33;;;;;;;9.67;54.33;100872.38;5040656;28;20021;-82
2021/12/14 00:55:40;;;;;;;1.90;1.70;;;;;;;9.53;55.08;100869.03;5041109;28;20033;-82
2021/12/14 00:58:06;;;;;;;2.30;1.48;;;;;;;9.49;56.14;100870.09;5023230;28;20065;-81
2021/12/14 01:00:39;;;;;;;1.70;1.60;;;;;;;9.24;56.67;100858.81;5041313;28;20040;-82
2021/12/14 01:03:07;;;;;;;2.13;1.83;;;;;;;9.18;56.91;100882.38;5023663;28;20108;-82
2021/12/14 01:05:37;;;;;;;2.90;2.08;;;;;;;9.20;56.98;100868.97;5023238;28;20071;-82
2021/12/14 01:08:09;;;;;;;2.03;1.75;;;;;;;9.16;57.50;100876.34;5040779;28;20034;-82
2021/12/14 01:10:46;;;;;;;2.22;1.85;;;;;;;8.90;57.74;100851.53;5022987;28;20025;-81
2021/12/14 01:13:12;;;;;;;4.05;1.55;;;;;;;9.11;57.62;100882.13;5022362;28;20192;-82
2021/12/14 01:24:34;;;;;;;2.25;1.50;;;;;;;9.64;52.80;100863.88;5041014;28;20038;-81
2021/12/14 01:27:00;;;;;;;1.35;1.25;;;;;;;9.69;52.62;100869.25;5041004;28;20480;-82
2021/12/14 01:29:26;;;;;;;1.10;1.00;;;;;;;9.59;51.97;100858.56;5022699;28;20080;-82
2021/12/14 01:31:58;;;;;;;2.03;1.50;;;;;;;9.74;51.43;100865.44;5024265;28;20031;-82
2021/12/14 01:34:24;;;;;;;1.60;1.23;;;;;;;9.67;51.92;100871.56;5023480;28;20037;-82
2021/12/14 01:36:55;;;;;;;1.60;1.45;;;;;;;9.63;51.73;100865.84;5023312;28;20092;-82
2021/12/14 01:40:01;;;;;;;2.22;1.67;;;;;;;9.70;51.83;100884.78;5023651;28;20029;-81
2021/12/14 01:42:30;;;;;;;2.90;2.05;;;;;;;9.84;50.55;100882.50;5041975;28;20025;-81
2021/12/14 01:45:03;;;;;;;2.53;1.75;;;;;;;9.83;50.29;100875.34;5042520;28;20483;-82
2021/12/14 01:47:39;;;;;;;1.70;1.60;;;;;;;10.17;48.33;100876.13;5042013;28;20113;-81
2021/12/14 01:50:10;;;;;;;2.15;1.40;;;;;;;10.23;48.06;100883.97;5023415;28;20029;-81
2021/12/14 01:52:39;;;;;;;1.50;1.40;;;;;;;10.34;48.06;100878.78;5023525;28;20033;-81
2021/12/14 01:55:11;;;;;;;2.00;1.88;;;;;;;10.47;46.57;100869.28;5024091;28;20034;-82
2021/12/14 01:57:37;;;;;;;1.40;1.30;;;;;;;10.55;46.42;100872.34;5041444;28;20030;-82
2021/12/14 02:00:07;;;;;;;1.73;1.60;;;;;;;10.51;47.25;100876.97;5041254;28;20038;-82
2021/12/14 02:02:42;;;;;;;1.67;1.40;;;;;;;10.65;46.04;100855.16;5041676;28;20021;-81
2021/12/14 02:05:33;;;;;;;3.03;1.70;;;;;;;10.62;47.13;100880.91;5025826;28;20056;-82
2021/12/14 02:08:02;;;;;;;1.60;1.50;;;;;;;10.47;46.42;100872.06;5025973;28;20139;-82
2021/12/14 02:10:33;;;;;;;2.20;1.98;;;;;;;10.44;47.20;100877.53;5026347;28;20036;-82
2021/12/14 02:13:05;;;;;;;1.98;1.77;;;;;;;10.41;46.47;100883.78;5023116;28;20042;-81
2021/12/14 02:15:42;;;;;;;1.80;1.55;;;;;;;10.30;46.74;100871.47;5022258;28;20488;-81
2021/12/14 02:18:14;;;;;;;1.95;1.70;;;;;;;10.23;45.95;100867.28;5023160;28;20038;-82
2021/12/14 02:20:57;;;;;;;3.25;1.90;;;;;;;10.22;46.61;100864.78;5022890;28;20065;-82
2021/12/14 02:23:24;;;;;;;1.67;1.58;;;;;;;10.03;45.95;100833.94;5023857;28;20100;-82
2021/12/14 02:25:52;;;;;;;1.83;1.58;;;;;;;10.22;46.03;100871.16;5022054;28;20040;-82
2021/12/14 02:28:20;;;;;;;1.65;1.55;;;;;;;10.32;45.44;100875.50;5021858;28;20030;-81
2021/12/14 02:30:49;;;;;;;2.50;1.77;;;;;;;10.28;45.51;100874.59;5021946;28;20121;-82
2021/12/14 02:33:42;;;;;;;1.63;1.52;;;;;;;10.31;45.52;100875.88;5022467;28;20604;-81
2021/12/14 02:36:17;;;;;;;2.00;1.45;;;;;;;10.34;44.61;100864.88;5019721;28;20053;-81
2021/12/14 02:38:45;;;;;;;1.75;1.65;;;;;;;10.20;45.42;100867.94;5026213;28;20030;-82
2021/12/14 02:41:11;;;;;;;1.90;1.73;;;;;;;10.17;45.79;100870.56;5031266;28;20029;-81
2021/12/14 02:43:42;;;;;;;1.70;1.60;;;;;;;10.22;46.09;100864.78;5034234;28;20033;-82
2021/12/14 02:46:14;;;;;;;1.60;1.48;;;;;;;10.10;46.00;100862.00;5029865;28;20033;-82
2021/12/14 02:48:43;;;;;;;1.60;1.50;;;;;;;10.09;46.58;100863.16;5019328;28;20476;-82
2021/12/14 02:51:13;;;;;;;1.70;1.60;;;;;;;10.01;46.17;100842.63;5017893;28;20080;-81
2021/12/14 02:53:43;;;;;;;1.83;1.73;;;;;;;10.15;45.75;100857.03;5017612;28;20022;-82
2021/12/14 02:56:12;;;;;;;1.58;1.40;;;;;;;10.05;46.24;100853.88;5019414;28;20078;-82
2021/12/14 02:58:38;;;;;;;2.03;1.83;;;;;;;10.04;46.14;100849.47;5018767;28;20030;-82
2021/12/14 03:01:06;;;;;;;1.77;1.60;;;;;;;10.14;45.73;100855.41;5017691;28;20094;-81
2021/12/14 03:03:32;;;;;;;1.42;1.23;;;;;;;10.02;46.46;100857.34;5018278;28;20034;-81
2021/12/14 03:06:00;;;;;;;2.03;1.17;;;;;;;9.97;46.73;100850.84;5018469;28;20029;-82
2021/12/14 03:08:27;;;;;;;2.45;1.38;;;;;;;9.89;47.21;100839.81;5018757;28;20037;-82
2021/12/14 03:11:10;;;;;;;1.30;1.20;;;;;;;10.00;47.22;100851.31;5021397;28;20053;-82
2021/12/14 03:13:45;;;;;;;1.75;1.45;;;;;;;9.89;46.92;100846.16;5019726;28;20092;-82
2021/12/14 03:16:19;;;;;;;2.15;1.88;;;;;;;9.88;47.86;100846.53;5020444;28;20486;-82
2021/12/14 03:18:48;;;;;;;1.67;1.58;;;;;;;9.87;48.20;100856.81;5018477;28;20053;-82
2021/12/14 03:21:25;;;;;;;1.55;1.45;;;;;;;9.92;48.81;100855.81;5018441;28;20029;-82
2021/12/14 03:23:57;;;;;;;1.98;1.58;;;;;;;9.94;48.55;100847.94;5020281;28;20034;-82
2021/12/14 03:26:28;;;;;;;1.55;1.45;;;;;;;10.02;48.20;100855.38;5021756;28;20018;-82
2021/12/14 03:28:57;;;;;;;1.80;1.70;;;;;;;10.15;47.91;100856.22;5021348;28;20050;-80
2021/12/14 03:31:27;;;;;;;1.85;1.75;;;;;;;9.96;49.27;100851.19;5020931;28;20088;-82
2021/12/14 03:34:01;;;;;;;1.70;1.58;;;;;;;9.83;49.58;100847.53;5018753;28;20033;-81
2021/12/14 03:36:29;;;;;;;;;;;;;;;9.75;49.72;100834.56;5020090;28;20026;-81
2021/12/14 03:39:21;;;;;;;1.95;1.80;;;;;;;9.89;49.60;100831.47;5021713;28;19913;-81
2021/12/14 03:42:09;;;;;;;1.70;1.60;;;;;;;9.79;50.62;100845.78;5021978;28;20034;-81
2021/12/14 03:44:49;;;;;;;4.28;3.88;;;;;;;9.72;50.83;100840.78;5024725;28;20025;-81
2021/12/14 03:47:22;;;;;;;5.40;3.90;;;;;;;9.60;52.30;100838.78;5022697;28;20084;-81
2021/12/14 03:49:57;;;;;;;2.85;2.35;;;;;;;9.55;52.15;100838.16;5021541;28;20036;-81
2021/12/14 03:52:27;;;;;;;10.93;3.75;;;;;;;9.49;52.00;100834.78;5022279;28;20030;-81
2021/12/14 03:54:54;;;;;;;3.80;2.33;;;;;;;9.45;51.31;100845.75;5022908;28;20026;-81
2021/12/14 03:57:20;;;;;;;4.65;2.58;;;;;;;9.40;51.89;100840.41;5023634;28;20064;-81
2021/12/14 03:59:46;;;;;;;3.33;2.53;;;;;;;9.29;53.29;100822.53;5021440;28;20025;-82
2021/12/14 04:02:16;;;;;;;2.05;1.85;;;;;;;9.23;52.65;100823.88;5020653;28;20032;-82
2021/12/14 04:05:01;;;;;;;3.38;3.08;;;;;;;9.26;53.17;100827.94;5023158;28;20029;-81
2021/12/14 04:07:27;;;;;;;4.35;3.20;;;;;;;9.19;54.35;100817.38;5023058;28;20113;-81
2021/12/14 04:09:53;;;;;;;2.65;2.45;;;;;;;9.13;55.74;100824.28;5023413;28;20065;-81
2021/12/14 04:12:20;;;;;;;3.83;2.88;;;;;;;9.01;56.39;100821.44;5024653;28;20022;-81
2021/12/14 04:14:56;;;;;;;3.13;2.70;;;;;;;8.95;56.83;100822.75;5027575;28;20036;-81
2021/12/14 04:17:26;;;;;;;2.63;2.30;;;;;;;8.87;57.66;100814.16;5045908;28;20030;-81
2021/12/14 04:19:52;;;;;;;3.15;2.38;;;;;;;8.78;57.83;100818.13;5027639;28;20029;-81
2021/12/14 04:22:22;;;;;;;3.50;2.78;;;;;;;8.89;57.38;100824.91;5029028;28;20034;-82
2021/12/14 04:24:51;;;;;;;3.03;2.72;;;;;;;8.81;57.54;100809.94;5030042;28;20429;-82
2021/12/14 04:27:22;;;;;;;3.97;3.50;;;;;;;8.80;57.25;100810.28;5049107;28;20059;-82
2021/12/14 04:29:48;;;;;;;2.80;2.60;;;;;;;8.70;57.73;100794.84;5029907;28;20025;-81
2021/12/14 04:32:16;;;;;;;4.40;3.45;;;;;;;8.77;57.38;100808.19;5029278;28;20064;-82
2021/12/14 04:34:42;;;;;;;4.35;2.33;;;;;;;8.83;57.37;100807.63;5029063;28;20059;-81
2021/12/14 04:37:09;;;;;;;10.70;9.63;;;;;;;9.05;57.05;100816.81;5029024;28;20064;-81
2021/12/14 04:39:45;;;;;;;13.15;11.55;;;;;;;8.99;56.80;100796.75;5013087;28;20041;-81
2021/12/14 04:53:24;;;;;;;2.38;2.17;;;;;;;9.17;56.55;100814.13;5047783;28;20056;-81
2021/12/14 04:55:53;;;;;;;3.70;3.40;;;;;;;9.17;56.24;100820.50;5030432;28;20037;-82
2021/12/14 04:58:28;;;;;;;2.78;2.17;;;;;;;9.30;56.01;100817.78;5049018;28;20069;-81
2021/12/14 05:00:54;;;;;;;6.13;2.97;;;;;;;9.41;55.60;100817.03;5031872;28;20029;-81
2021/12/14 05:03:34;;;;;;;2.60;2.20;;;;;;;9.55;55.15;100807.59;5032943;28;20102;-81
2021/12/14 05:06:14;;;;;;;1.92;1.70;;;;;;;9.70;54.83;100804.19;5033488;28;20033;-83
2021/12/14 05:11:11;;;;;;;1.52;1.42;;;;;;;9.66;54.72;100817.94;5043625;28;20044;-82
2021/12/14 05:13:36;;;;;;;1.45;1.35;;;;;;;9.57;55.01;100795.00;5044867;28;20089;-81
2021/12/14 05:16:06;;;;;;;1.75;1.48;;;;;;;9.67;54.83;100821.53;5045614;28;20033;-81
2021/12/14 05:18:32;;;;;;;1.70;1.58;;;;;;;9.53;55.15;100807.13;5047151;28;20037;-82
2021/12/14 05:20:59;;;;;;;2.58;1.58;;;;;;;9.44;56.08;100823.88;5033845;28;20057;-82
2021/12/14 05:23:33;;;;;;;1.88;1.75;;;;;;;9.44;55.97;100824.69;5055966;28;20014;-82
2021/12/14 05:26:02;;;;;;;2.78;2.00;;;;;;;9.43;56.05;100834.19;5055845;28;20052;-80
2021/12/14 05:28:29;;;;;;;2.13;2.03;;;;;;;9.36;57.15;100835.84;5039369;28;20484;-80
2021/12/14 05:30:58;;;;;;;2.72;1.65;;;;;;;9.37;56.06;100835.50;5021289;28;20028;-81
2021/12/14 05:33:27;;;;;;;3.72;1.90;;;;;;;9.21;56.67;100817.03;5039048;28;20116;-81
2021/12/14 05:35:58;;;;;;;1.88;1.70;;;;;;;9.18;56.34;100815.75;5021500;28;20026;-82
2021/12/14 05:38:40;;;;;;;2.20;2.00;;;;;;;9.17;57.39;100828.00;5021621;28;20028;-81
2021/12/14 05:43:05;;;;;;;1.80;1.70;;;;;;;9.10;57.01;100831.31;5021486;28;20127;-81
2021/12/14 05:43:58;;;;;;;3.45;2.50;;;;;;;9.07;57.58;100825.63;5039379;28;20380;-81
2021/12/14 05:46:24;;;;;;;4.30;2.15;;;;;;;9.06;57.83;100835.13;5039294;28;20033;-82
2021/12/14 05:49:00;;;;;;;2.25;2.10;;;;;;;9.02;58.00;100828.59;5007135;28;20049;-80
2021/12/14 05:51:28;;;;;;;2.42;1.80;;;;;;;8.93;57.62;100823.91;5024180;28;20095;-82
2021/12/14 05:53:54;;;;;;;2.30;2.10;;;;;;;8.95;58.10;100828.31;5040095;28;20025;-81
2021/12/14 05:56:22;;;;;;;2.63;2.42;;;;;;;8.92;58.20;100833.38;5023390;28;20029;-82
2021/12/14 05:58:49;;;;;;;2.42;2.22;;;;;;;8.86;58.26;100826.41;5023853;28;20481;-81
2021/12/14 06:01:19;;;;;;;3.60;2.78;;;;;;;8.60;59.28;100800.78;5021842;28;20366;-81
2021/12/14 06:03:50;;;;;;;3.92;2.60;;;;;;;8.73;59.74;100833.00;5022116;28;20022;-81
2021/12/14 06:06:20;;;;;;;4.68;3.53;;;;;;;8.79;59.75;100841.94;5025182;28;20033;-80
2021/12/14 06:08:46;;;;;;;5.63;4.53;;;;;;;8.77;60.32;100845.06;5023963;28;20021;-81
2021/12/14 06:11:24;;;;;;;5.93;5.07;;;;;;;8.70;60.48;100843.97;5023056;28;20043;-81
2021/12/14 06:13:50;;;;;;;3.78;3.38;;;;;;;8.71;60.16;100835.31;5023921;28;20106;-82
2021/12/14 06:16:25;;;;;;;3.45;3.15;;;;;;;8.78;59.73;100843.91;5024246;28;20025;-82
2021/12/14 06:18:51;;;;;;;4.97;3.97;;;;;;;8.83;59.91;100838.16;5023731;28;20114;-80
2021/12/14 06:21:28;;;;;;;6.25;3.95;;;;;;;8.93;60.00;100846.09;5025264;28;20026;-81
2021/12/14 06:24:07;;;;;;;4.65;3.70;;;;;;;8.99;59.97;100857.03;5025192;28;20044;-81
2021/12/14 06:26:39;;;;;;;4.05;3.63;;;;;;;8.88;60.01;100849.06;5041954;28;20052;-80
2021/12/14 06:29:13;;;;;;;5.20;3.00;;;;;;;9.02;59.69;100848.03;5024348;28;20097;-81
2021/12/14 06:31:42;;;;;;;;;;;;;;;9.17;59.67;100859.38;5024717;28;20033;-80
2021/12/14 06:34:20;;;;;;;4.93;3.08;;;;;;;9.19;59.48;100856.25;5025595;28;19909;-82
2021/12/14 06:36:48;;;;;;;4.35;2.70;;;;;;;9.29;59.12;100866.94;5027300;28;20472;-81
2021/12/14 06:39:14;;;;;;;5.53;4.57;;;;;;;9.17;58.97;100848.25;5025386;28;20116;-80
2021/12/14 06:41:39;;;;;;;51.40;29.90;;;;;;;9.27;59.11;100860.09;5023924;28;20118;-81
2021/12/14 06:44:05;;;;;;;29.23;19.85;;;;;;;9.31;58.62;100856.31;5023580;28;20109;-81
2021/12/14 06:46:35;;;;;;;32.45;22.63;;;;;;;9.34;58.87;100858.41;5024522;28;20038;-80
2021/12/14 06:49:11;;;;;;;35.10;25.67;;;;;;;9.46;58.77;100863.22;5041913;28;20103;-81
2021/12/14 06:51:52;;;;;;;18.83;15.00;;;;;;;9.47;58.93;100867.63;5009084;28;20041;-81
2021/12/14 06:54:25;;;;;;;7.00;6.25;;;;;;;9.57;58.63;100858.06;5025272;28;20028;-81
2021/12/14 06:56:56;;;;;;;8.90;5.33;;;;;;;9.45;58.62;100854.09;5040243;28;20052;-80
2021/12/14 06:59:22;;;;;;;3.50;3.15;;;;;;;9.67;58.31;100880.69;5041495;28;20053;-82
2021/12/14 07:01:54;;;;;;;4.45;2.80;;;;;;;9.70;58.05;100882.81;5040387;28;20029;-81
2021/12/14 07:04:27;;;;;;;7.97;2.40;;;;;;;9.80;57.69;100877.97;5021682;28;20110;-80
2021/12/14 07:06:58;;;;;;;2.70;2.50;;;;;;;9.79;57.94;100881.91;5022929;28;20022;-81
2021/12/14 07:09:33;;;;;;;2.33;2.10;;;;;;;9.82;57.43;100868.16;5023145;28;20101;-79
2021/12/14 07:12:02;;;;;;;3.63;2.75;;;;;;;9.83;58.25;100883.66;5026346;28;20034;-82
2021/12/14 07:14:28;;;;;;;7.07;2.65;;;;;;;9.91;57.77;100887.53;5045366;28;20042;-80
2021/12/14 07:17:03;;;;;;;3.42;2.28;;;;;;;9.88;58.08;100889.03;5027946;28;20037;-81
2021/12/14 07:19:52;;;;;;;2.33;2.13;;;;;;;9.91;57.70;100887.53;5045297;28;20057;-80
2021/12/14 07:22:30;;;;;;;3.40;2.20;;;;;;;9.92;58.01;100901.09;5029299;28;20025;-81
2021/12/14 07:25:14;;;;;;;2.38;2.10;;;;;;;9.82;58.01;100884.84;5028748;28;20150;-81
2021/12/14 07:27:45;;;;;;;4.40;2.10;;;;;;;9.87;58.31;100901.31;5029079;28;20037;-80
2021/12/14 07:30:39;;;;;;;2.83;2.50;;;;;;;9.89;58.10;100895.38;5045808;28;20044;-80
2021/12/14 07:33:23;;;;;;;3.85;2.67;;;;;;;9.98;58.09;100905.28;5028895;28;20063;-80
2021/12/14 07:36:04;;;;;;;4.28;2.65;;;;;;;10.11;57.49;100899.75;5030008;28;20036;-80
2021/12/14 07:38:33;;;;;;;6.60;2.53;;;;;;;10.18;57.54;100902.81;5029894;28;20029;-81
2021/12/14 07:41:06;;;;;;;4.95;2.83;;;;;;;10.19;57.63;100898.88;5049111;28;20033;-81
2021/12/14 07:43:36;;;;;;;5.03;2.67;;;;;;;10.47;56.64;100899.91;5031236;28;20030;-81
2021/12/14 07:46:13;;;;;;;2.90;2.50;;;;;;;10.57;55.97;100908.97;5048040;28;20030;-82
2021/12/14 07:48:49;;;;;;;2.60;1.80;;;;;;;10.86;54.80;100899.59;5048938;28;20030;-80
2021/12/14 07:51:17;;;;;;;2.35;2.05;;;;;;;11.73;51.98;100904.72;5035118;28;20488;-81
2021/12/14 07:53:49;;;;;;;1.70;1.60;;;;;;;11.69;52.04;100898.22;5057037;28;20033;-82
2021/12/14 07:56:27;;;;;;;2.03;1.23;;;;;;;11.77;50.65;100892.50;5042571;28;20014;-81
2021/12/14 07:58:54;;;;;;;2.30;1.52;;;;;;;12.06;50.02;100908.09;5040267;28;20040;-82
2021/12/14 08:01:20;;;;;;;2.13;1.80;;;;;;;12.07;50.28;100906.94;5041084;28;20035;-82
2021/12/14 08:03:49;;;;;;;2.90;2.20;;;;;;;12.48;48.64;100918.81;5058114;28;20033;-82
2021/12/14 08:06:15;;;;;;;2.28;2.05;;;;;;;13.10;47.13;100908.84;5037425;28;20025;-80
2021/12/14 08:08:48;;;;;;;3.85;2.72;;;;;;;12.87;47.96;100902.25;5051405;28;20029;-80
2021/12/14 08:14:03;;;;;;;1.70;1.60;;;;;;;12.54;48.79;100895.06;5055824;28;20053;-81
2021/12/14 08:17:06;;;;;;;6.40;2.25;;;;;;;12.50;49.04;100902.50;5041161;28;20081;-79
2021/12/14 08:19:40;;;;;;;2.08;1.75;;;;;;;12.44;49.75;100892.78;5026096;28;20052;-80
2021/12/14 08:22:14;;;;;;;2.00;1.80;;;;;;;12.39;50.25;100893.06;5038759;28;20033;-80
2021/12/14 08:24:48;;;;;;;1.65;1.55;;;;;;;12.42;49.79;100902.72;5039643;28;20025;-81
2021/12/14 08:27:20;;;;;;;3.22;1.70;;;;;;;12.31;50.37;100897.63;5038561;28;20024;-79
2021/12/14 08:29:50;;;;;;;1.75;1.65;;;;;;;12.31;50.19;100885.66;5055678;28;20032;-81
2021/12/14 08:32:20;;;;;;;3.25;1.98;;;;;;;12.30;51.12;100904.41;5057744;28;20041;-81
2021/12/14 08:34:48;;;;;;;3.45;2.20;;;;;;;12.17;51.05;100900.03;5038722;28;20063;-81
2021/12/14 08:37:27;;;;;;;2.95;2.20;;;;;;;12.18;51.42;100906.41;5040226;28;20038;-81
2021/12/14 08:40:15;;;;;;;3.55;2.47;;;;;;;12.14;50.75;100872.03;5038087;28;20025;-81
2021/12/14 08:43:02;;;;;;;2.50;2.28;;;;;;;12.03;51.62;100894.03;5030965;28;20034;-80
2021/12/14 08:45:39;;;;;;;1.50;1.40;;;;;;;12.15;50.38;100902.38;5044770;28;20021;-79
2021/12/14 08:48:12;;;;;;;1.52;1.42;;;;;;;12.23;50.41;100912.56;5027512;28;20044;-81
2021/12/14 08:50:52;;;;;;;4.33;1.60;;;;;;;12.33;50.46;100908.44;5029177;28;20056;-81
2021/12/14 08:53:18;;;;;;;1.70;1.48;;;;;;;12.34;50.21;100901.69;5046116;28;20025;-81
2021/12/14 08:55:47;;;;;;;6.90;3.08;;;;;;;12.34;50.06;100893.31;5028884;28;20048;-80
2021/12/14 08:58:13;;;;;;;2.67;1.83;;;;;;;12.49;50.35;100917.66;5046768;28;20048;-81
2021/12/14 09:00:47;;;;;;;3.33;2.22;;;;;;;12.42;49.37;100902.72;5028434;28;20026;-80
2021/12/14 09:03:24;;;;;;;4.05;2.22;;;;;;;12.54;49.68;100900.63;5027897;28;20033;-81
2021/12/14 09:05:51;;;;;;;2.42;1.65;;;;;;;12.62;48.81;100923.16;5045506;28;20026;-81
2021/12/14 09:08:20;;;;;;;2.03;1.65;;;;;;;12.70;48.78;100913.81;5024594;28;20026;-80
2021/12/14 09:10:50;;;;;;;2.83;1.23;;;;;;;12.72;48.89;100911.44;5041796;28;20029;-80
2021/12/14 09:13:16;;;;;;;2.50;1.58;;;;;;;12.76;48.49;100906.78;5025052;28;20476;-80
2021/12/14 09:15:52;;;;;;;4.53;1.45;;;;;;;12.79;48.49;100918.03;5025909;28;20077;-80
2021/12/14 09:18:19;;;;;;;4.63;2.65;;;;;;;12.83;49.11;100907.75;5042328;28;20033;-79
2021/12/14 09:20:50;;;;;;;6.13;4.68;;;;;;;12.81;49.17;100898.94;5008422;28;20032;-81
2021/12/14 09:23:22;;;;;;;4.25;2.92;;;;;;;12.80;48.32;100896.50;5041615;28;20044;-80
2021/12/14 09:25:49;;;;;;;4.17;3.80;;;;;;;13.39;46.89;100903.94;5025207;28;20030;-79
2021/12/14 09:28:15;;;;;;;5.93;4.75;;;;;;;13.81;46.05;100900.47;5039914;28;20383;-81
2021/12/14 09:30:50;;;;;;;3.20;2.15;;;;;;;14.45;44.71;100898.13;5021608;28;20112;-80
2021/12/14 09:33:17;;;;;;;3.65;2.45;;;;;;;15.10;43.04;100896.06;5041430;28;20514;-80
2021/12/14 09:35:46;;;;;;;4.88;1.95;;;;;;;14.58;43.84;100894.78;5040882;28;20064;-82
2021/12/14 09:38:19;;;;;;;1.55;1.27;;;;;;;14.13;44.41;100896.34;5023277;28;20056;-80
2021/12/14 09:40:51;;;;;;;3.80;1.52;;;;;;;13.92;45.14;100893.09;5039308;28;20034;-81
2021/12/14 09:43:19;;;;;;;5.57;1.67;;;;;;;13.91;45.62;100883.09;5009062;28;20030;-81
2021/12/14 09:45:48;;;;;;;4.97;1.98;;;;;;;13.66;46.32;100870.56;5022060;28;20472;-79
2021/12/14 09:48:19;;;;;;;5.13;3.88;;;;;;;13.68;46.40;100896.19;5021294;28;20116;-79
2021/12/14 09:50:46;;;;;;;1.48;1.38;;;;;;;13.59;46.26;100883.22;5021292;28;20025;-80
2021/12/14 09:53:16;;;;;;;3.35;2.15;;;;;;;13.71;45.46;100879.47;5037932;28;20357;-79
2021/12/14 09:55:49;;;;;;;3.53;2.58;;;;;;;13.69;46.20;100870.66;5020626;28;20022;-79
2021/12/14 09:58:19;;;;;;;10.85;6.38;;;;;;;13.64;46.35;100873.75;5036299;28;20033;-81
2021/12/14 10:01:03;;;;;;;5.60;3.42;;;;;;;13.51;46.16;100856.28;5021943;28;20044;-79
2021/12/14 10:03:29;;;;;;;7.18;5.50;;;;;;;13.55;46.64;100848.78;5021207;28;20049;-78
2021/12/14 10:06:03;;;;;;;6.13;4.63;;;;;;;13.74;45.92;100855.53;5018655;28;20053;-79
2021/12/14 10:08:34;;;;;;;5.50;3.10;;;;;;;13.99;44.85;100850.47;5020002;28;20040;-79
2021/12/14 10:11:23;;;;;;;1.90;1.63;;;;;;;14.67;43.91;100850.53;5040752;28;20065;-80
2021/12/14 10:13:52;;;;;;;3.58;1.70;;;;;;;14.58;44.05;100844.38;5041640;28;20121;-81
2021/12/14 10:16:19;;;;;;;2.85;2.10;;;;;;;14.13;44.79;100826.38;5024201;28;20068;-80
2021/12/14 10:19:10;;;;;;;3.53;2.38;;;;;;;14.89;44.24;100845.28;5021719;28;20128;-77
2021/12/14 10:21:40;;;;;;;3.10;1.60;;;;;;;14.80;43.19;100834.34;5036477;28;20113;-74
2021/12/14 10:24:07;;;;;;;3.25;1.75;;;;;;;14.72;44.05;100832.63;5017233;28;20040;-74
2021/12/14 10:26:40;;;;;;;5.18;4.32;;;;;;;14.55;43.07;100833.94;5017524;28;20029;-76
2021/12/14 10:29:06;;;;;;;4.13;2.88;;;;;;;14.36;44.00;100828.38;5018173;28;20025;-76
2021/12/14 10:31:40;;;;;;;6.00;1.90;;;;;;;15.08;43.26;100822.78;5017943;28;20400;-74
2021/12/14 10:34:17;;;;;;;2.47;2.28;;;;;;;15.56;41.79;100803.41;5038361;28;20025;-80
2021/12/14 10:36:46;;;;;;;3.00;2.70;;;;;;;15.63;41.28;100820.34;5023491;28;20030;-81
2021/12/14 10:39:38;;;;;;;6.60;1.80;;;;;;;15.78;41.02;100806.50;5039862;28;20029;-78
2021/12/14 10:45:02;;;;;;;2.75;2.00;;;;;;;15.55;41.08;100784.94;5044609;28;20044;-78
2021/12/14 10:47:30;;;;;;;2.65;2.40;;;;;;;15.87;40.61;100790.97;5029284;28;20087;-81
2021/12/14 10:49:59;;;;;;;2.00;1.90;;;;;;;16.06;40.50;100787.16;5055839;28;20033;-77
2021/12/14 10:52:27;;;;;;;1.70;1.15;;;;;;;15.97;39.95;100781.03;5024954;28;20026;-77
2021/12/14 10:55:01;;;;;;;1.35;1.25;;;;;;;15.48;40.50;100776.44;5020966;28;20116;-77
2021/12/14 10:57:32;;;;;;;2.03;1.83;;;;;;;15.17;41.52;100786.84;5040480;28;20056;-81
2021/12/14 10:59:59;;;;;;;1.98;1.50;;;;;;;14.75;42.71;100789.03;5023363;28;20029;-76
2021/12/14 11:02:27;;;;;;;1.75;1.65;;;;;;;14.61;43.09;100778.44;5022986;28;20033;-79
2021/12/14 11:04:59;;;;;;;1.33;1.23;;;;;;;14.51;43.33;100770.66;5041272;28;20029;-80
2021/12/14 11:07:43;;;;;;;6.18;2.90;;;;;;;14.99;42.98;100759.78;5041413;28;20029;-81
2021/12/14 11:10:11;;;;;;;;;;;;;;;15.12;41.67;100750.75;5043884;28;20029;-81
2021/12/14 11:12:42;;;;;;;1.42;1.33;;;;;;;15.49;41.48;100750.00;5040365;28;19909;-76
2021/12/14 11:15:13;;;;;;;1.27;1.17;;;;;;;15.64;41.30;100765.84;5021683;28;20489;-75
2021/12/14 11:20:27;;;;;;;2.13;1.98;;;;;;;14.86;42.23;100759.19;5437964;22;20080;-77
2021/12/14 11:23:20;;;;;;;5.65;1.70;;;;;;;15.06;42.58;100763.47;5040386;28;20038;-78
2021/12/14 11:25:49;;;;;;;4.80;2.40;;;;;;;15.38;41.92;100761.09;5021839;28;20041;-78
2021/12/14 11:28:20;;;;;;;1.75;1.27;;;;;;;15.31;41.42;100740.59;5023008;28;20037;-78
2021/12/14 11:31:12;;;;;;;1.83;1.50;;;;;;;15.67;40.81;100767.09;5023165;28;20083;-78
2021/12/14 11:33:45;;;;;;;1.90;1.55;;;;;;;15.68;40.59;100743.47;5020558;28;20457;-77
2021/12/14 11:36:24;;;;;;;3.50;2.10;;;;;;;15.88;40.14;100735.66;5021251;28;20037;-76
2021/12/14 11:38:59;;;;;;;2.20;2.00;;;;;;;16.03;40.72;100754.22;5039526;28;20252;-78
2021/12/14 11:41:40;;;;;;;2.92;1.48;;;;;;;15.75;40.25;100765.16;5022677;28;20079;-77
2021/12/14 11:44:05;;;;;;;3.15;2.83;;;;;;;15.61;41.39;100754.56;5022061;28;20025;-76
2021/12/14 11:46:33;;;;;;;3.40;2.63;;;;;;;15.55;41.14;100720.44;5022166;28;20025;-77
2021/12/14 11:49:04;;;;;;;3.15;2.88;;;;;;;15.79;40.99;100721.94;5039577;28;20041;-77
2021/12/14 11:51:32;;;;;;;1.95;1.33;;;;;;;15.23;41.32;100705.22;5038185;28;20434;-76
2021/12/14 11:54:00;;;;;;;3.30;2.35;;;;;;;15.39;42.24;100743.09;5020531;28;20037;-77
2021/12/14 11:56:32;;;;;;;4.72;2.50;;;;;;;15.30;41.88;100742.59;5037741;28;20045;-74
2021/12/14 11:59:05;;;;;;;6.18;2.53;;;;;;;15.41;41.22;100737.09;5004066;28;20038;-78
2021/12/14 12:01:46;;;;;;;5.63;2.75;;;;;;;15.64;41.07;100734.19;5038978;28;20022;-77
2021/12/14 12:04:19;;;;;;;2.88;1.85;;;;;;;15.70;40.30;100730.66;5022296;28;20486;-76
2021/12/14 12:09:37;;;;;;;5.20;2.28;;;;;;;16.23;39.86;100716.31;5040803;28;19909;-78
2021/12/14 12:12:03;;;;;;;3.33;2.63;;;;;;;16.02;39.22;100710.50;5022290;28;20034;-79
2021/12/14 12:14:40;;;;;;;3.13;2.17;;;;;;;16.01;39.93;100714.53;5039371;28;20079;-78
2021/12/14 12:17:15;;;;;;;9.13;3.25;;;;;;;16.13;39.79;100700.19;5040082;28;20475;-77
2021/12/14 12:19:53;;;;;;;3.45;3.15;;;;;;;16.19;38.88;100700.63;5021692;28;20120;-76
2021/12/14 12:22:20;;;;;;;2.55;2.25;;;;;;;16.14;39.49;100701.00;5022310;28;20128;-76
2021/12/14 12:24:50;;;;;;;2.90;2.40;;;;;;;16.14;39.07;100707.44;5021305;28;20028;-76
2021/12/14 12:27:18;;;;;;;2.42;1.67;;;;;;;16.12;38.80;100701.38;5021261;28;20456;-76
2021/12/14 12:29:44;;;;;;;2.10;1.55;;;;;;;15.94;38.86;100698.44;5026126;28;20039;-76